Time;durP1;ratioP1;P1;durP2;ratioP2;P2;SDS_P1;SDS_P2;PMS_P1;PMS_P2;Temp;Humidity;BMP_temperature;BMP_pressure;BME280_temperature;BME280_humidity;BME280_pressure;Samples;Min_cycle;Max_cycle;Signal;HPM_P1;HPM_P2
2023/07/22 00:01:23;;;;;;;16.50;9.98;;;17.50;99.90;;;;;;5052306;28;20074;-72
2023/07/22 00:03:49;;;;;;;13.13;10.73;;;17.50;99.90;;;;;;5051985;28;20069;-73
2023/07/22 00:06:15;;;;;;;14.32;11.13;;;17.40;99.90;;;;;;5052317;28;20461;-73
2023/07/22 00:08:40;;;;;;;16.13;11.13;;;17.40;99.90;;;;;;5052388;28;20464;-72
2023/07/22 00:11:07;;;;;;;15.13;11.05;;;17.50;99.90;;;;;;5055297;28;20037;-73
2023/07/22 00:13:33;;;;;;;15.98;12.10;;;17.40;99.90;;;;;;5047904;28;20108;-75
2023/07/22 00:16:00;;;;;;;15.38;11.43;;;17.40;99.90;;;;;;5039040;28;20046;-73
2023/07/22 00:18:29;;;;;;;13.88;11.30;;;17.40;99.90;;;;;;5054569;28;20032;-75
2023/07/22 00:20:55;;;;;;;12.93;11.05;;;17.40;99.90;;;;;;5058036;28;20047;-73
2023/07/22 00:23:21;;;;;;;14.77;10.75;;;17.40;99.90;;;;;;5057158;28;20025;-75
2023/07/22 00:25:47;;;;;;;17.15;11.35;;;17.40;99.90;;;;;;5058626;28;20382;-73
2023/07/22 00:28:13;;;;;;;14.35;11.25;;;17.40;99.90;;;;;;5058991;28;20380;-73
2023/07/22 00:30:39;;;;;;;12.98;10.07;;;17.40;99.90;;;;;;5058810;28;20493;-72
2023/07/22 00:33:05;;;;;;;14.45;10.15;;;17.40;99.90;;;;;;5058039;28;20090;-72
2023/07/22 00:35:31;;;;;;;15.38;10.80;;;17.40;99.90;;;;;;5058526;28;20037;-75
2023/07/22 00:37:58;;;;;;;16.70;10.95;;;17.40;99.90;;;;;;5058792;28;20025;-73
2023/07/22 00:40:23;;;;;;;15.15;10.27;;;17.40;99.90;;;;;;5057255;28;20025;-76
2023/07/22 00:42:49;;;;;;;12.68;10.00;;;17.40;99.90;;;;;;5058852;28;20385;-73
2023/07/22 00:45:15;;;;;;;15.07;10.40;;;17.40;99.90;;;;;;5058677;28;20063;-75
2023/07/22 00:47:41;;;;;;;13.38;9.70;;;17.40;99.90;;;;;;5058600;28;20021;-73
2023/07/22 00:50:07;;;;;;;13.60;9.82;;;17.40;99.90;;;;;;5058550;28;20025;-73
2023/07/22 00:52:34;;;;;;;12.32;9.27;;;17.40;99.90;;;;;;5057529;28;20031;-72
2023/07/22 00:55:01;;;;;;;10.90;9.23;;;17.40;99.90;;;;;;5058353;28;20036;-74
2023/07/22 00:57:26;;;;;;;15.50;9.95;;;17.30;99.90;;;;;;5058601;28;20025;-74
2023/07/22 00:59:52;;;;;;;10.35;8.20;;;17.30;99.90;;;;;;5058234;28;20021;-73
2023/07/22 01:02:19;;;;;;;12.30;9.88;;;17.30;99.90;;;;;;5057078;28;20527;-73
2023/07/22 01:04:45;;;;;;;13.68;9.73;;;17.30;99.90;;;;;;5056085;28;20035;-75
2023/07/22 01:07:11;;;;;;;11.85;8.75;;;17.30;99.90;;;;;;5056224;28;20037;-73
2023/07/22 01:09:40;;;;;;;13.10;8.32;;;17.30;99.90;;;;;;5058500;28;20049;-73
2023/07/22 01:12:06;;;;;;;13.80;8.95;;;17.20;99.90;;;;;;5058107;28;20044;-73
2023/07/22 01:14:41;;;;;;;11.30;8.18;;;17.20;99.90;;;;;;5058552;28;20071;-73
2023/07/22 01:17:09;;;;;;;12.35;8.63;;;17.20;99.90;;;;;;5057864;28;20037;-73
2023/07/22 01:19:35;;;;;;;10.70;8.63;;;17.20;99.90;;;;;;5056505;28;20021;-72
2023/07/22 01:22:04;;;;;;;11.65;8.02;;;17.20;99.90;;;;;;5055981;28;20107;-74
2023/07/22 01:24:30;;;;;;;11.75;8.95;;;17.20;99.90;;;;;;5055374;28;20029;-72
2023/07/22 01:26:56;;;;;;;12.45;8.95;;;17.20;99.90;;;;;;5055234;28;20032;-72
2023/07/22 01:29:23;;;;;;;14.98;8.55;;;17.10;99.90;;;;;;5055131;28;20025;-73
2023/07/22 01:31:51;;;;;;;13.98;8.82;;;17.20;99.90;;;;;;5054828;28;20017;-73
2023/07/22 01:34:17;;;;;;;10.73;8.77;;;17.20;99.90;;;;;;5055125;28;20021;-72
2023/07/22 01:36:43;;;;;;;15.95;8.65;;;17.20;99.90;;;;;;5054295;28;20516;-74
2023/07/22 01:39:10;;;;;;;11.68;7.65;;;17.20;99.90;;;;;;5054978;28;20366;-73
2023/07/22 01:41:36;;;;;;;13.32;9.38;;;17.20;99.90;;;;;;5054906;28;20580;-72
2023/07/22 01:44:02;;;;;;;13.88;9.57;;;17.20;99.90;;;;;;5054039;28;20060;-72
2023/07/22 01:46:28;;;;;;;12.40;8.93;;;17.20;99.90;;;;;;5052454;28;20092;-74
2023/07/22 01:48:55;;;;;;;15.00;10.45;;;17.10;99.90;;;;;;5054535;28;20036;-73
2023/07/22 01:51:21;;;;;;;13.20;10.25;;;17.10;99.90;;;;;;5054561;28;20531;-75
2023/07/22 01:53:46;;;;;;;14.77;10.18;;;17.10;99.90;;;;;;5054340;28;20025;-75
2023/07/22 01:56:13;;;;;;;17.33;10.77;;;17.10;99.90;;;;;;5054564;28;20370;-73
2023/07/22 01:58:39;;;;;;;14.75;10.05;;;17.10;99.90;;;;;;5052901;28;20021;-73
2023/07/22 02:01:04;;;;;;;13.18;10.57;;;17.20;99.90;;;;;;5053729;28;20028;-73
2023/07/22 02:03:31;;;;;;;12.32;9.68;;;17.20;99.90;;;;;;5054627;28;20490;-72
2023/07/22 02:06:06;;;;;;;17.08;11.02;;;17.20;99.90;;;;;;5054228;28;20029;-72
2023/07/22 02:08:32;;;;;;;17.88;11.40;;;17.20;99.90;;;;;;5053823;28;20035;-74
2023/07/22 02:11:06;;;;;;;16.05;11.27;;;17.20;99.90;;;;;;5053555;28;21013;-73
2023/07/22 02:13:33;;;;;;;16.40;11.27;;;17.20;99.90;;;;;;5054222;28;20054;-72
2023/07/22 02:15:59;;;;;;;20.02;11.60;;;17.20;99.90;;;;;;5053725;28;20505;-73
2023/07/22 02:18:25;;;;;;;15.30;10.98;;;17.20;99.90;;;;;;5053914;28;20044;-73
2023/07/22 02:20:52;;;;;;;16.33;11.45;;;17.10;99.90;;;;;;5054127;28;20033;-73
2023/07/22 02:23:18;;;;;;;16.35;10.85;;;17.10;99.90;;;;;;5053475;28;20077;-72
2023/07/22 02:25:44;;;;;;;17.88;11.27;;;17.10;99.90;;;;;;5052853;28;20036;-72
2023/07/22 02:28:10;;;;;;;19.15;11.40;;;17.20;99.90;;;;;;5053705;28;20052;-72
2023/07/22 02:30:37;;;;;;;12.52;9.85;;;17.20;99.90;;;;;;5053969;28;20058;-72
2023/07/22 02:33:05;;;;;;;16.35;10.13;;;17.10;99.90;;;;;;5053206;28;20025;-72
2023/07/22 02:35:30;;;;;;;16.67;11.77;;;17.10;99.90;;;;;;5053633;28;20041;-72
2023/07/22 02:37:56;;;;;;;17.10;10.75;;;17.10;99.90;;;;;;5052266;28;20017;-72
2023/07/22 02:40:22;;;;;;;14.07;10.73;;;17.20;99.90;;;;;;5053523;28;20035;-73
2023/07/22 02:42:47;;;;;;;15.88;11.65;;;17.10;99.90;;;;;;5053615;28;20044;-72
2023/07/22 02:45:13;;;;;;;19.33;12.18;;;17.10;99.90;;;;;;5053745;28;20531;-73
2023/07/22 02:47:39;;;;;;;16.50;12.40;;;17.10;99.90;;;;;;5051371;28;20468;-74
2023/07/22 02:50:06;;;;;;;16.45;11.45;;;17.10;99.90;;;;;;5053309;28;20067;-72
2023/07/22 02:52:32;;;;;;;18.35;12.15;;;17.00;99.90;;;;;;5053751;28;20116;-73
2023/07/22 02:55:20;;;;;;;15.88;11.50;;;17.00;99.90;;;;;;5053608;28;20536;-73
2023/07/22 02:57:47;;;;;;;16.77;11.60;;;17.00;99.90;;;;;;5053231;28;20032;-73
2023/07/22 03:00:23;;;;;;;18.75;12.30;;;17.00;99.90;;;;;;5053325;28;20067;-72
2023/07/22 03:02:50;;;;;;;17.73;10.95;;;17.00;99.90;;;;;;5053249;28;20033;-74
2023/07/22 03:05:16;;;;;;;19.77;12.60;;;17.10;99.90;;;;;;5053286;28;20049;-73
2023/07/22 03:07:42;;;;;;;16.63;12.18;;;17.00;99.90;;;;;;5053406;28;20487;-72
2023/07/22 03:10:08;;;;;;;16.65;11.43;;;17.00;99.90;;;;;;5052672;28;20107;-74
2023/07/22 03:12:35;;;;;;;16.05;11.57;;;17.00;99.90;;;;;;5052562;28;20037;-72
2023/07/22 03:15:01;;;;;;;16.13;11.40;;;17.00;99.90;;;;;;5053204;28;20492;-72
2023/07/22 03:17:27;;;;;;;17.40;11.93;;;17.00;99.90;;;;;;5052946;28;20043;-72
2023/07/22 03:19:53;;;;;;;18.35;12.40;;;16.90;99.90;;;;;;5053156;28;20102;-71
2023/07/22 03:22:18;;;;;;;18.23;12.15;;;16.90;99.90;;;;;;5052611;28;20404;-74
2023/07/22 03:24:45;;;;;;;18.35;11.95;;;16.90;99.90;;;;;;5052949;28;20527;-72
2023/07/22 03:27:12;;;;;;;16.17;11.60;;;16.90;99.90;;;;;;5052590;28;20384;-72
2023/07/22 03:29:38;;;;;;;16.17;11.82;;;16.90;99.90;;;;;;5052302;28;20175;-72
2023/07/22 03:32:04;;;;;;;17.15;11.73;;;16.90;99.90;;;;;;5052783;28;20534;-72
2023/07/22 03:34:30;;;;;;;14.93;11.32;;;16.90;99.90;;;;;;5052527;28;20029;-72
2023/07/22 03:36:57;;;;;;;18.70;12.80;;;16.90;99.90;;;;;;5052264;28;20108;-72
2023/07/22 03:39:22;;;;;;;17.52;12.23;;;16.80;99.90;;;;;;5052694;28;20024;-72
2023/07/22 03:41:48;;;;;;;16.77;11.35;;;16.90;99.90;;;;;;5052560;28;20025;-72
2023/07/22 03:44:14;;;;;;;17.17;12.43;;;16.90;99.90;;;;;;5051104;28;20386;-72
2023/07/22 03:46:40;;;;;;;18.80;11.98;;;16.90;99.90;;;;;;5051024;28;20013;-72
2023/07/22 03:49:05;;;;;;;20.05;12.85;;;16.80;99.90;;;;;;5052319;28;20067;-72
2023/07/22 03:51:32;;;;;;;16.67;11.57;;;16.80;99.90;;;;;;5052581;28;20474;-73
2023/07/22 03:53:58;;;;;;;16.02;11.00;;;16.80;99.90;;;;;;5052452;28;20033;-72
2023/07/22 03:56:24;;;;;;;15.80;11.35;;;16.80;99.90;;;;;;5052310;28;20374;-73
2023/07/22 03:58:53;;;;;;;19.88;11.98;;;16.80;99.90;;;;;;5051737;28;20028;-72
2023/07/22 04:01:19;;;;;;;19.35;11.88;;;16.80;99.90;;;;;;5052201;28;20025;-72
2023/07/22 04:03:44;;;;;;;17.58;12.73;;;16.70;99.90;;;;;;5052068;28;20087;-73
2023/07/22 04:06:10;;;;;;;17.40;12.25;;;16.70;99.90;;;;;;5052069;28;20540;-74
2023/07/22 04:08:36;;;;;;;21.92;12.85;;;16.70;99.90;;;;;;5052231;28;20021;-73
2023/07/22 04:11:02;;;;;;;15.43;11.68;;;16.70;99.90;;;;;;5051225;28;20017;-72
2023/07/22 04:13:28;;;;;;;19.65;12.00;;;16.70;99.90;;;;;;5051877;28;20539;-72
2023/07/22 04:15:53;;;;;;;15.82;11.90;;;16.70;99.90;;;;;;5052024;28;20041;-74
2023/07/22 04:18:20;;;;;;;22.42;13.13;;;16.70;99.90;;;;;;5051226;28;20021;-72
2023/07/22 04:20:48;;;;;;;21.17;11.77;;;16.70;99.90;;;;;;5052331;28;20029;-73
2023/07/22 04:23:14;;;;;;;15.80;11.30;;;16.70;99.90;;;;;;5050747;28;20480;-75
2023/07/22 04:25:40;;;;;;;15.93;11.07;;;16.70;99.90;;;;;;5051777;28;20091;-73
2023/07/22 04:28:07;;;;;;;19.90;12.20;;;16.80;99.90;;;;;;5052248;28;20028;-74
2023/07/22 04:30:33;;;;;;;17.23;12.82;;;16.80;99.90;;;;;;5050918;28;20048;-75
2023/07/22 04:32:58;;;;;;;17.25;11.45;;;16.80;99.90;;;;;;5051594;28;20476;-72
2023/07/22 04:35:24;;;;;;;15.18;11.35;;;16.70;99.90;;;;;;5051454;28;20037;-73
2023/07/22 04:37:49;;;;;;;14.80;11.40;;;16.80;99.90;;;;;;5052337;28;20067;-73
2023/07/22 04:40:16;;;;;;;19.00;10.75;;;16.80;99.90;;;;;;5050773;28;20033;-74
2023/07/22 04:42:43;;;;;;;17.75;11.73;;;16.70;99.90;;;;;;5052287;28;20469;-73
2023/07/22 04:45:09;;;;;;;19.38;11.52;;;16.80;99.90;;;;;;5051155;28;20520;-75
2023/07/22 04:47:36;;;;;;;18.92;12.23;;;16.90;99.90;;;;;;5050647;28;20120;-75
2023/07/22 04:50:03;;;;;;;17.42;12.65;;;16.80;99.90;;;;;;5051727;28;20104;-73
2023/07/22 04:52:29;;;;;;;18.85;12.88;;;16.90;99.90;;;;;;5052069;28;20079;-73
2023/07/22 04:54:55;;;;;;;16.02;12.43;;;16.90;99.90;;;;;;5051821;28;20029;-75
2023/07/22 04:57:21;;;;;;;20.95;11.75;;;16.90;99.90;;;;;;5053878;28;20111;-72
2023/07/22 04:59:47;;;;;;;17.73;11.95;;;16.80;99.90;;;;;;5055878;28;20021;-72
2023/07/22 05:02:13;;;;;;;19.15;12.25;;;16.90;99.90;;;;;;5048210;28;20028;-73
2023/07/22 05:04:38;;;;;;;18.13;12.25;;;16.90;99.90;;;;;;5052460;28;20029;-75
2023/07/22 05:07:04;;;;;;;18.25;11.63;;;17.00;99.90;;;;;;5038887;28;20048;-74
2023/07/22 05:09:30;;;;;;;20.27;12.30;;;17.00;99.90;;;;;;5035201;28;20037;-75
2023/07/22 05:11:56;;;;;;;21.73;12.52;;;16.90;99.90;;;;;;5035125;28;20033;-75
2023/07/22 05:14:21;;;;;;;21.98;14.48;;;16.90;99.90;;;;;;5035716;28;20034;-75
2023/07/22 05:16:47;;;;;;;22.38;12.93;;;16.90;99.90;;;;;;5035392;28;20060;-75
2023/07/22 05:19:13;;;;;;;19.00;12.95;;;17.00;99.90;;;;;;5035377;28;20025;-75
2023/07/22 05:21:38;;;;;;;25.13;12.93;;;17.00;99.90;;;;;;5033841;28;20390;-75
2023/07/22 05:24:04;;;;;;;24.27;14.40;;;17.00;99.90;;;;;;5033731;28;20029;-75
2023/07/22 05:26:30;;;;;;;24.35;14.43;;;17.00;99.90;;;;;;5035064;28;20025;-75
2023/07/22 05:28:57;;;;;;;22.35;12.88;;;17.10;99.90;;;;;;5035414;28;20025;-74
2023/07/22 05:31:22;;;;;;;26.67;13.88;;;17.20;99.90;;;;;;5042783;28;20535;-75
2023/07/22 05:33:48;;;;;;;20.52;12.20;;;17.20;99.90;;;;;;5035431;28;20030;-75
2023/07/22 05:36:14;;;;;;;18.85;12.45;;;17.30;99.90;;;;;;5034658;28;20087;-74
2023/07/22 05:38:39;;;;;;;21.55;11.68;;;17.30;99.90;;;;;;5038416;28;20078;-76
2023/07/22 05:41:05;;;;;;;21.20;13.40;;;17.40;99.90;;;;;;5054025;28;20519;-75
2023/07/22 05:43:31;;;;;;;24.98;12.98;;;17.30;99.90;;;;;;5054695;28;20049;-75
2023/07/22 05:45:57;;;;;;;18.80;12.57;;;17.40;99.90;;;;;;5052901;28;20534;-75
2023/07/22 05:48:22;;;;;;;24.08;13.65;;;17.40;99.90;;;;;;5053646;28;20080;-75
2023/07/22 05:50:48;;;;;;;19.95;12.60;;;17.40;99.90;;;;;;5053308;28;20040;-76
2023/07/22 05:53:13;;;;;;;18.08;12.68;;;17.40;99.90;;;;;;5052316;28;20521;-76
2023/07/22 05:55:39;;;;;;;20.98;13.73;;;17.40;99.90;;;;;;5052498;28;20041;-75
2023/07/22 05:58:05;;;;;;;25.50;13.52;;;17.40;99.90;;;;;;5052347;28;20013;-75
2023/07/22 06:00:34;;;;;;;20.33;13.73;;;17.40;99.90;;;;;;5052573;28;20469;-75
2023/07/22 06:03:00;;;;;;;22.63;13.38;;;17.40;99.90;;;;;;5053197;28;20025;-75
2023/07/22 06:05:26;;;;;;;24.65;12.95;;;17.50;99.90;;;;;;5054237;28;20029;-73
2023/07/22 06:07:52;;;;;;;21.58;13.18;;;17.40;99.90;;;;;;5051275;28;20451;-75
2023/07/22 06:10:17;;;;;;;20.08;13.15;;;17.50;99.90;;;;;;5052466;28;20029;-74
2023/07/22 06:12:43;;;;;;;23.95;15.05;;;17.50;99.90;;;;;;5053932;28;20038;-75
2023/07/22 06:15:09;;;;;;;20.83;13.05;;;17.50;99.90;;;;;;5038624;28;20052;-75
2023/07/22 06:17:35;;;;;;;21.50;13.27;;;17.50;99.90;;;;;;5032395;28;20044;-75
2023/07/22 06:20:01;;;;;;;21.33;12.73;;;17.60;99.90;;;;;;5033165;28;20017;-75
2023/07/22 06:22:26;;;;;;;21.42;14.48;;;17.60;99.90;;;;;;5033860;28;20029;-75
2023/07/22 06:24:52;;;;;;;23.55;13.88;;;17.60;99.90;;;;;;5033434;28;20418;-75
2023/07/22 06:27:18;;;;;;;22.58;12.65;;;17.70;99.90;;;;;;5033305;28;20627;-75
2023/07/22 06:29:43;;;;;;;23.23;13.70;;;17.70;99.90;;;;;;5030811;28;20024;-76
2023/07/22 06:32:09;;;;;;;26.60;13.38;;;17.60;99.90;;;;;;5033614;28;20026;-75
2023/07/22 06:34:34;;;;;;;23.90;12.63;;;17.60;99.90;;;;;;5033282;28;20484;-73
2023/07/22 06:37:00;;;;;;;26.17;14.50;;;17.60;99.90;;;;;;5031974;28;20590;-75
2023/07/22 06:39:26;;;;;;;25.40;13.55;;;17.70;99.90;;;;;;5040233;28;20025;-73
2023/07/22 06:41:51;;;;;;;25.10;14.05;;;17.70;99.90;;;;;;5044111;28;20055;-74
2023/07/22 06:44:17;;;;;;;22.40;13.35;;;17.80;99.90;;;;;;5045300;28;20076;-74
2023/07/22 06:46:44;;;;;;;27.60;13.77;;;17.90;99.90;;;;;;5045550;28;20422;-74
2023/07/22 06:49:10;;;;;;;23.08;12.75;;;17.90;99.90;;;;;;5047828;28;20025;-75
2023/07/22 06:51:35;;;;;;;24.42;14.23;;;18.00;99.90;;;;;;5031491;28;20087;-74
2023/07/22 06:54:02;;;;;;;24.65;13.98;;;18.00;99.90;;;;;;5037960;28;20021;-74
2023/07/22 06:56:28;;;;;;;24.95;13.18;;;17.80;99.90;;;;;;5031732;28;20504;-75
2023/07/22 06:58:54;;;;;;;24.00;13.30;;;17.90;99.90;;;;;;5030994;28;20022;-75
2023/07/22 07:01:19;;;;;;;24.17;13.88;;;17.80;99.90;;;;;;5036891;28;20024;-75
2023/07/22 07:03:45;;;;;;;23.50;13.48;;;17.80;99.90;;;;;;5051947;28;20487;-73
2023/07/22 07:06:11;;;;;;;22.77;14.35;;;17.90;99.90;;;;;;5052616;28;20104;-75
2023/07/22 07:08:37;;;;;;;24.77;14.05;;;17.90;99.90;;;;;;5053209;28;20028;-76
2023/07/22 07:11:03;;;;;;;23.35;12.32;;;18.10;99.90;;;;;;5052912;28;20104;-75
2023/07/22 07:13:28;;;;;;;27.02;13.98;;;18.00;99.90;;;;;;5053177;28;20021;-76
2023/07/22 07:15:54;;;;;;;23.08;13.52;;;18.00;99.90;;;;;;5053513;28;20044;-77
2023/07/22 07:18:20;;;;;;;23.73;12.75;;;17.90;99.90;;;;;;5052747;28;20031;-76
2023/07/22 07:20:46;;;;;;;24.70;13.18;;;18.00;99.90;;;;;;5052195;28;20103;-76
2023/07/22 07:23:13;;;;;;;20.15;13.35;;;18.10;99.90;;;;;;5053131;28;20547;-76
2023/07/22 07:25:39;;;;;;;27.45;13.05;;;18.10;99.90;;;;;;5053027;28;20021;-76
2023/07/22 07:28:05;;;;;;;21.90;13.70;;;18.20;99.90;;;;;;5052963;28;20025;-76
2023/07/22 07:30:31;;;;;;;21.75;11.93;;;18.30;99.90;;;;;;5053031;28;20017;-75
2023/07/22 07:32:56;;;;;;;20.85;12.43;;;18.40;99.90;;;;;;5051219;28;20370;-75
2023/07/22 07:35:22;;;;;;;26.40;12.45;;;18.50;99.90;;;;;;5052907;28;20196;-76
2023/07/22 07:37:48;;;;;;;22.63;13.20;;;18.50;99.90;;;;;;5052761;28;20366;-76
2023/07/22 07:40:13;;;;;;;26.48;13.18;;;18.50;99.90;;;;;;5052437;28;20048;-76
2023/07/22 07:42:39;;;;;;;25.90;12.82;;;18.60;99.90;;;;;;5052674;28;20028;-75
2023/07/22 07:45:05;;;;;;;20.40;11.50;;;18.60;99.90;;;;;;5052682;28;20074;-75
2023/07/22 07:47:31;;;;;;;19.67;12.77;;;18.70;99.90;;;;;;5052274;28;20021;-77
2023/07/22 07:49:56;;;;;;;26.00;12.98;;;18.70;99.90;;;;;;5051499;28;20051;-76
2023/07/22 07:52:22;;;;;;;25.63;11.65;;;18.80;99.90;;;;;;5051369;28;20025;-75
2023/07/22 07:54:48;;;;;;;21.45;11.27;;;18.90;99.90;;;;;;5052545;28;20033;-77
2023/07/22 07:57:14;;;;;;;21.33;12.07;;;18.90;99.90;;;;;;5052625;28;20140;-76
2023/07/22 07:59:39;;;;;;;21.02;12.07;;;19.00;99.90;;;;;;5051081;28;20021;-74
2023/07/22 08:02:09;;;;;;;20.40;12.00;;;19.10;99.90;;;;;;5051943;28;20540;-75
2023/07/22 08:04:34;;;;;;;16.98;10.75;;;19.20;99.90;;;;;;5052705;28;20111;-76
2023/07/22 08:07:00;;;;;;;18.30;9.57;;;19.40;99.90;;;;;;5051311;28;20488;-76
2023/07/22 08:09:26;;;;;;;17.35;10.60;;;19.40;99.90;;;;;;5052186;28;20021;-75
2023/07/22 08:11:51;;;;;;;23.25;11.32;;;19.50;99.90;;;;;;5050606;28;20496;-75
2023/07/22 08:14:18;;;;;;;21.88;10.30;;;19.50;99.90;;;;;;5051158;28;20025;-75
2023/07/22 08:16:44;;;;;;;17.77;10.50;;;19.50;99.90;;;;;;5052009;28;20033;-74
2023/07/22 08:19:09;;;;;;;23.67;11.70;;;19.50;99.90;;;;;;5052263;28;20090;-76
2023/07/22 08:21:35;;;;;;;18.05;10.20;;;19.50;99.90;;;;;;5052207;28;20116;-75
2023/07/22 08:24:02;;;;;;;18.10;10.38;;;19.50;99.90;;;;;;5052309;28;20075;-76
2023/07/22 08:26:28;;;;;;;21.13;10.77;;;19.50;99.90;;;;;;5052359;28;20496;-75
2023/07/22 08:28:53;;;;;;;18.05;8.85;;;19.60;99.90;;;;;;5052153;28;20052;-75
2023/07/22 08:31:19;;;;;;;19.17;9.70;;;19.60;99.90;;;;;;5052340;28;20025;-76
2023/07/22 08:33:45;;;;;;;16.88;8.95;;;19.70;99.90;;;;;;5056220;28;20094;-76
2023/07/22 08:36:10;;;;;;;17.13;9.38;;;19.80;99.90;;;;;;5056053;28;20461;-76
2023/07/22 08:38:36;;;;;;;21.10;9.18;;;20.00;99.90;;;;;;5056294;28;20039;-74
2023/07/22 08:41:02;;;;;;;20.23;9.65;;;20.10;99.90;;;;;;5055791;28;20032;-75
2023/07/22 08:43:29;;;;;;;19.38;9.20;;;20.00;99.90;;;;;;5054869;28;20025;-77
2023/07/22 08:45:55;;;;;;;21.65;9.00;;;19.90;99.90;;;;;;5055757;28;20112;-76
2023/07/22 08:48:26;;;;;;;16.38;9.20;;;19.80;99.90;;;;;;5056047;28;20021;-74
2023/07/22 08:51:09;;;;;;;15.50;8.65;;;19.90;99.90;;;;;;5055850;28;20036;-76
2023/07/22 08:53:36;;;;;;;18.02;8.90;;;20.20;99.90;;;;;;5055812;28;20025;-77
2023/07/22 08:56:02;;;;;;;15.07;9.18;;;20.30;99.90;;;;;;5054450;28;20039;-77
2023/07/22 08:58:29;;;;;;;15.00;8.80;;;20.40;99.90;;;;;;5055807;28;20033;-72
2023/07/22 09:00:56;;;;;;;15.50;8.10;;;20.50;99.90;;;;;;5055311;28;20465;-76
2023/07/22 09:03:22;;;;;;;13.20;8.20;;;20.70;99.90;;;;;;5055902;28;20021;-72
2023/07/22 09:05:48;;;;;;;16.42;8.02;;;20.60;99.90;;;;;;5055553;28;20067;-77
2023/07/22 09:08:13;;;;;;;11.80;8.35;;;20.70;99.90;;;;;;5055537;28;20584;-73
2023/07/22 09:10:39;;;;;;;15.52;7.47;;;20.80;99.90;;;;;;5055053;28;20036;-73
2023/07/22 09:13:05;;;;;;;17.55;7.78;;;20.90;99.90;;;;;;5055244;28;20111;-76
2023/07/22 09:15:36;;;;;;;18.33;7.63;;;20.90;99.90;;;;;;5054828;28;20080;-74
2023/07/22 09:18:03;;;;;;;15.57;8.73;;;20.90;99.90;;;;;;5055351;28;20412;-72
2023/07/22 09:20:29;;;;;;;10.85;7.38;;;20.90;99.90;;;;;;5055410;28;20091;-78
2023/07/22 09:22:55;;;;;;;12.88;7.32;;;21.10;99.90;;;;;;5055482;28;20029;-74
2023/07/22 09:25:25;;;;;;;12.65;6.90;;;21.00;99.90;;;;;;5055370;28;20032;-73
2023/07/22 09:27:52;;;;;;;11.80;6.43;;;21.10;99.90;;;;;;5055218;28;20025;-75
2023/07/22 09:30:28;;;;;;;9.98;6.13;;;21.40;99.90;;;;;;5054863;28;20024;-74
2023/07/22 09:32:56;;;;;;;10.15;6.18;;;21.70;99.90;;;;;;5055427;28;20093;-74
2023/07/22 09:35:22;;;;;;;12.63;5.95;;;22.00;99.90;;;;;;5055125;28;20044;-74
2023/07/22 09:37:48;;;;;;;10.35;5.50;;;21.90;99.90;;;;;;5055096;28;20525;-73
2023/07/22 09:40:22;;;;;;;9.32;5.50;;;22.10;99.90;;;;;;5054539;28;20025;-75
2023/07/22 09:42:52;;;;;;;9.52;5.18;;;22.20;99.90;;;;;;5054589;28;20029;-73
2023/07/22 09:45:19;;;;;;;11.95;5.78;;;22.10;99.90;;;;;;5054277;28;20092;-74
2023/07/22 09:47:47;;;;;;;9.00;5.53;;;22.20;99.90;;;;;;5055050;28;20545;-73
2023/07/22 09:50:18;;;;;;;10.73;5.15;;;22.40;99.90;;;;;;5055031;28;20170;-74
2023/07/22 09:52:49;;;;;;;11.73;5.43;;;22.40;99.90;;;;;;5054828;28;20429;-73
2023/07/22 09:55:20;;;;;;;9.80;5.00;;;22.40;99.90;;;;;;5054977;28;20037;-72
2023/07/22 09:58:02;;;;;;;8.30;4.68;;;22.40;99.90;;;;;;5055005;28;20037;-73
2023/07/22 10:00:30;;;;;;;8.43;4.35;;;22.50;99.90;;;;;;5055827;28;20444;-74
2023/07/22 10:02:57;;;;;;;12.15;4.72;;;22.50;99.90;;;;;;5055463;28;20043;-73
2023/07/22 10:05:25;;;;;;;7.93;4.05;;;22.70;99.90;;;;;;5055023;28;20017;-77
2023/07/22 10:07:53;;;;;;;9.55;3.63;;;22.90;99.90;;;;;;5054773;28;20025;-77
2023/07/22 10:10:21;;;;;;;7.70;4.00;;;23.30;99.90;;;;;;5054348;28;20048;-77
2023/07/22 10:12:47;;;;;;;5.82;3.53;;;23.40;99.90;;;;;;5054091;28;20512;-78
2023/07/22 10:15:14;;;;;;;5.90;3.53;;;23.50;99.90;;;;;;5054264;28;20033;-75
2023/07/22 10:17:41;;;;;;;7.47;3.58;;;23.50;99.90;;;;;;5054307;28;20017;-77
2023/07/22 10:20:14;;;;;;;8.18;3.60;;;23.50;99.90;;;;;;5054208;28;20021;-77
2023/07/22 10:22:45;;;;;;;7.38;3.78;;;23.60;99.90;;;;;;5054290;28;20527;-77
2023/07/22 10:25:16;;;;;;;6.22;3.22;;;23.60;99.90;;;;;;5054537;28;20442;-78
2023/07/22 10:27:43;;;;;;;4.30;3.58;;;23.80;99.90;;;;;;5053841;28;20052;-76
2023/07/22 10:30:10;;;;;;;4.40;2.78;;;23.70;99.90;;;;;;5053812;28;20451;-77
2023/07/22 10:32:47;;;;;;;5.63;3.33;;;23.60;99.90;;;;;;5054178;28;20100;-76
2023/07/22 10:35:21;;;;;;;4.05;3.10;;;23.30;99.90;;;;;;5053967;28;20044;-75
2023/07/22 10:37:48;;;;;;;5.85;2.90;;;23.20;99.90;;;;;;5054037;28;20021;-76
2023/07/22 10:40:20;;;;;;;6.47;2.78;;;23.40;99.90;;;;;;5053466;28;20075;-76
2023/07/22 10:42:54;;;;;;;4.13;3.08;;;23.20;99.90;;;;;;5053550;28;20029;-76
2023/07/22 10:45:28;;;;;;;5.50;2.50;;;23.20;99.90;;;;;;5053815;28;20021;-77
2023/07/22 10:48:12;;;;;;;8.13;3.10;;;23.40;99.90;;;;;;5053806;28;20381;-74
2023/07/22 10:50:48;;;;;;;4.75;2.85;;;23.50;99.90;;;;;;5054075;28;20029;-77
2023/07/22 10:53:26;;;;;;;9.38;2.80;;;23.40;99.90;;;;;;5053934;28;20044;-79
2023/07/22 10:56:14;;;;;;;5.18;2.58;;;23.30;99.90;;;;;;5052944;28;20044;-77
2023/07/22 10:59:00;;;;;;;8.90;2.58;;;23.60;99.90;;;;;;5053834;28;20022;-78
2023/07/22 11:01:27;;;;;;;5.75;2.60;;;23.60;99.90;;;;;;5053722;28;20013;-77
2023/07/22 11:04:18;;;;;;;3.63;2.00;;;23.60;99.90;;;;;;5053333;28;20037;-75
2023/07/22 11:06:43;;;;;;;6.03;2.38;;;23.60;99.90;;;;;;5053646;28;20031;-77
2023/07/22 11:09:27;;;;;;;6.28;2.67;;;23.60;99.90;;;;;;5053336;28;20373;-78
2023/07/22 11:11:56;;;;;;;4.40;2.50;;;23.60;99.90;;;;;;5052461;28;20115;-77
2023/07/22 11:14:25;;;;;;;4.47;2.30;;;23.40;99.90;;;;;;5053280;28;20159;-77
2023/07/22 11:16:51;;;;;;;2.45;1.75;;;23.50;99.90;;;;;;5053463;28;20461;-77
2023/07/22 11:19:20;;;;;;;4.55;2.33;;;23.40;99.90;;;;;;5052909;28;20032;-77
2023/07/22 11:21:48;;;;;;;5.57;1.92;;;23.50;99.90;;;;;;5053158;28;20029;-77
2023/07/22 11:24:15;;;;;;;4.32;2.03;;;23.50;99.90;;;;;;5052967;28;20031;-74
2023/07/22 11:26:41;;;;;;;4.15;2.58;;;23.40;99.90;;;;;;5050016;28;20699;-76
2023/07/22 11:29:09;;;;;;;5.13;2.13;;;23.40;99.90;;;;;;5051692;28;20096;-77
2023/07/22 11:31:36;;;;;;;3.83;2.50;;;23.40;99.90;;;;;;5052965;28;20021;-77
2023/07/22 11:34:03;;;;;;;2.75;2.00;;;23.70;99.90;;;;;;5052108;28;20020;-77
2023/07/22 11:36:29;;;;;;;2.85;1.83;;;23.70;99.90;;;;;;5052733;28;20045;-78
2023/07/22 11:39:05;;;;;;;3.65;2.10;;;23.70;99.90;;;;;;5052504;28;20025;-75
2023/07/22 11:41:32;;;;;;;5.68;2.88;;;23.90;99.90;;;;;;5052270;28;20025;-76
2023/07/22 11:43:59;;;;;;;3.80;1.88;;;23.80;99.90;;;;;;5052854;28;20358;-76
2023/07/22 11:46:26;;;;;;;6.35;2.28;;;23.80;99.90;;;;;;5052598;28;20543;-76
2023/07/22 11:48:55;;;;;;;4.32;2.25;;;23.70;99.90;;;;;;5052366;28;20040;-77
2023/07/22 11:51:25;;;;;;;3.35;2.30;;;23.80;99.90;;;;;;5052259;28;20021;-77
2023/07/22 11:53:52;;;;;;;5.95;2.88;;;23.90;99.90;;;;;;5051213;28;20078;-76
2023/07/22 11:56:26;;;;;;;3.15;2.00;;;24.00;99.90;;;;;;5052478;28;20035;-77
2023/07/22 11:58:54;;;;;;;3.38;2.72;;;24.00;99.90;;;;;;5032305;28;20033;-73
2023/07/22 12:01:20;;;;;;;2.85;2.55;;;24.00;99.90;;;;;;5036541;28;20029;-76
2023/07/22 12:03:46;;;;;;;3.80;2.50;;;23.80;99.90;;;;;;5052172;28;20032;-77
2023/07/22 12:06:12;;;;;;;3.33;2.60;;;23.90;99.90;;;;;;5051508;28;20417;-75
2023/07/22 12:08:49;;;;;;;3.13;2.25;;;24.00;99.90;;;;;;5052044;28;20592;-75
2023/07/22 12:11:24;;;;;;;3.70;2.55;;;23.90;99.90;;;;;;5050857;28;20052;-76
2023/07/22 12:14:08;;;;;;;6.70;3.13;;;23.90;99.90;;;;;;5052231;28;20469;-73
2023/07/22 12:16:36;;;;;;;2.65;2.45;;;23.70;99.90;;;;;;5052054;28;20068;-75
2023/07/22 12:19:02;;;;;;;4.65;2.08;;;23.70;99.90;;;;;;5050710;28;20474;-75
2023/07/22 12:21:28;;;;;;;5.22;2.58;;;23.80;99.90;;;;;;5049391;28;20013;-75
2023/07/22 12:23:54;;;;;;;3.60;2.67;;;23.80;99.90;;;;;;5031951;28;20018;-76
2023/07/22 12:26:20;;;;;;;6.53;2.85;;;24.00;99.90;;;;;;5031027;28;20033;-75
2023/07/22 12:28:46;;;;;;;3.08;2.38;;;24.00;99.90;;;;;;5031695;28;20030;-75
2023/07/22 12:31:11;;;;;;;4.15;2.45;;;24.00;99.90;;;;;;5031978;28;20382;-77
2023/07/22 12:33:37;;;;;;;3.60;2.45;;;24.10;99.90;;;;;;5032312;28;20021;-75